createdAt,value
2019-05-10T00:00:08.692Z,100.00
2019-05-10T00:02:55.444Z,100.00
2019-05-10T00:05:41.727Z,100.00
2019-05-10T00:08:27.998Z,100.00
2019-05-10T00:11:34.347Z,100.00
2019-05-10T00:14:28.722Z,100.00
2019-05-10T00:17:02.012Z,100.00
2019-05-10T00:19:30.609Z,100.00
2019-05-10T00:21:59.212Z,100.00
2019-05-10T00:24:27.836Z,100.00
2019-05-10T00:26:56.470Z,100.00
2019-05-10T00:29:25.175Z,100.00
2019-05-10T00:31:53.778Z,100.00
2019-05-10T00:34:22.384Z,100.00
2019-05-10T00:36:51.074Z,100.00
2019-05-10T00:39:19.685Z,100.00
2019-05-10T00:41:48.327Z,100.00
2019-05-10T00:44:16.933Z,100.00
2019-05-10T00:46:45.554Z,100.00
2019-05-10T00:49:14.261Z,100.00
2019-05-10T00:51:42.922Z,100.00
2019-05-10T00:54:11.528Z,100.00
2019-05-10T00:56:40.157Z,100.00
2019-05-10T00:59:08.758Z,100.00
2019-05-10T01:01:37.391Z,100.00
2019-05-10T01:04:06.041Z,100.00
2019-05-10T01:06:34.667Z,100.00
2019-05-10T01:09:04.444Z,100.00
2019-05-10T01:11:33.074Z,100.00
2019-05-10T01:14:01.663Z,100.00
2019-05-10T01:16:30.275Z,100.00
2019-05-10T01:18:58.901Z,100.00
2019-05-10T01:21:27.643Z,100.00
2019-05-10T01:23:56.235Z,100.00
2019-05-10T01:26:24.852Z,100.00
2019-05-10T01:28:53.467Z,100.00
2019-05-10T01:31:22.073Z,100.00
2019-05-10T01:33:50.678Z,100.00
2019-05-10T01:36:20.851Z,100.00
2019-05-10T01:38:49.464Z,100.00
2019-05-10T01:41:18.149Z,100.00
2019-05-10T01:43:46.866Z,100.00
2019-05-10T01:46:15.482Z,100.00
2019-05-10T01:48:44.155Z,100.00
2019-05-10T01:51:12.767Z,100.00
2019-05-10T01:53:41.399Z,100.00
2019-05-10T01:56:10.047Z,100.00
2019-05-10T01:58:38.649Z,100.00
2019-05-10T02:01:07.304Z,100.00
2019-05-10T02:03:36.020Z,100.00
2019-05-10T02:06:04.713Z,100.00
2019-05-10T02:08:33.312Z,100.00
2019-05-10T02:11:02.317Z,100.00
2019-05-10T02:13:30.931Z,100.00
2019-05-10T02:15:59.620Z,100.00
2019-05-10T02:18:28.349Z,100.00
2019-05-10T02:20:56.958Z,100.00
2019-05-10T02:23:25.581Z,100.00
2019-05-10T02:26:08.353Z,100.00
2019-05-10T02:28:24.650Z,100.00
2019-05-10T02:30:53.269Z,100.00
2019-05-10T02:33:21.998Z,100.00
2019-05-10T02:35:50.606Z,100.00
2019-05-10T02:38:19.233Z,100.00
2019-05-10T02:40:47.843Z,100.00
2019-05-10T02:43:16.558Z,100.00
2019-05-10T02:45:45.164Z,100.00
2019-05-10T02:48:13.793Z,100.00
2019-05-10T02:50:42.390Z,100.00
2019-05-10T02:53:11.287Z,100.00
2019-05-10T02:55:40.163Z,100.00
2019-05-10T02:58:08.982Z,100.00
2019-05-10T03:00:41.010Z,100.00
2019-05-10T03:03:09.701Z,100.00
2019-05-10T03:05:38.386Z,100.00
2019-05-10T03:08:07.018Z,100.00
2019-05-10T03:10:38.450Z,100.00
2019-05-10T03:13:07.218Z,100.00
2019-05-10T03:15:37.344Z,100.00
2019-05-10T03:18:06.139Z,100.00
2019-05-10T03:20:36.627Z,100.00
2019-05-10T03:23:05.325Z,100.00
2019-05-10T03:25:34.185Z,100.00
2019-05-10T03:28:02.803Z,100.00
2019-05-10T03:30:31.659Z,100.00
2019-05-10T03:33:00.286Z,100.00
2019-05-10T03:35:29.140Z,100.00
2019-05-10T03:37:57.897Z,100.00
2019-05-10T03:40:26.513Z,100.00
2019-05-10T03:42:55.256Z,100.00
2019-05-10T03:45:23.889Z,100.00
2019-05-10T03:47:52.499Z,100.00
2019-05-10T03:50:21.105Z,100.00
2019-05-10T03:52:52.302Z,100.00
2019-05-10T03:55:20.258Z,100.00
2019-05-10T03:57:48.874Z,100.00
2019-05-10T04:00:17.740Z,100.00
2019-05-10T04:02:46.440Z,100.00
2019-05-10T04:05:15.723Z,100.00
2019-05-10T04:07:44.590Z,100.00
2019-05-10T04:10:14.232Z,100.00
2019-05-10T04:12:42.836Z,100.00
2019-05-10T04:15:11.497Z,100.00
2019-05-10T04:17:40.241Z,100.00
2019-05-10T04:20:09.319Z,100.00
2019-05-10T04:22:38.037Z,100.00
2019-05-10T04:25:06.945Z,100.00
2019-05-10T04:27:35.602Z,100.00
2019-05-10T04:30:04.361Z,100.00
2019-05-10T04:32:32.981Z,100.00
2019-05-10T04:35:01.596Z,100.00
2019-05-10T04:37:30.265Z,100.00
2019-05-10T04:39:58.939Z,100.00
2019-05-10T04:42:27.517Z,100.00
2019-05-10T04:44:56.134Z,100.00
2019-05-10T04:47:24.780Z,100.00
2019-05-10T04:49:53.410Z,100.00
2019-05-10T04:52:22.079Z,100.00
2019-05-10T04:54:50.676Z,100.00
2019-05-10T04:57:19.396Z,100.00
2019-05-10T04:59:47.998Z,100.00
2019-05-10T05:02:21.651Z,100.00
2019-05-10T05:04:47.125Z,100.00
2019-05-10T05:07:15.831Z,100.00
2019-05-10T05:09:44.453Z,100.00
2019-05-10T05:12:13.160Z,100.00
2019-05-10T05:14:42.030Z,100.00
2019-05-10T05:17:10.649Z,100.00
2019-05-10T05:19:40.998Z,100.00
2019-05-10T05:22:09.823Z,100.00
2019-05-10T05:24:38.425Z,100.00
2019-05-10T05:27:07.130Z,100.00
2019-05-10T05:29:35.747Z,100.00
2019-05-10T05:32:04.482Z,100.00
2019-05-10T05:34:33.099Z,100.00
2019-05-10T05:37:01.784Z,100.00
2019-05-10T05:39:30.406Z,100.00
2019-05-10T05:41:59.073Z,100.00
2019-05-10T05:44:27.965Z,100.00
2019-05-10T05:46:56.791Z,100.00
2019-05-10T05:49:25.461Z,100.00
2019-05-10T05:51:54.033Z,100.00
2019-05-10T05:54:22.865Z,100.00
2019-05-10T05:56:53.131Z,100.00
2019-05-10T05:59:23.753Z,100.00
2019-05-10T06:01:52.252Z,100.00
2019-05-10T06:04:20.881Z,100.00
2019-05-10T06:06:53.774Z,100.00
2019-05-10T06:09:19.816Z,100.00
2019-05-10T06:11:48.453Z,100.00
2019-05-10T06:14:17.069Z,100.00
2019-05-10T06:16:51.235Z,100.00
2019-05-10T06:19:20.457Z,100.00
2019-05-10T06:21:46.353Z,100.00
2019-05-10T06:24:15.864Z,99.02
2019-05-10T06:26:44.715Z,98.13
2019-05-10T06:29:17.686Z,98.35
2019-05-10T06:31:43.746Z,99.20
2019-05-10T06:34:12.442Z,96.29
2019-05-10T06:36:41.054Z,97.12
2019-05-10T06:39:09.808Z,98.03
2019-05-10T06:41:38.410Z,96.40
2019-05-10T06:44:07.088Z,95.76
2019-05-10T06:46:35.715Z,95.76
2019-05-10T06:49:08.449Z,94.37
2019-05-10T06:51:35.036Z,96.12
2019-05-10T06:54:03.641Z,93.94
2019-05-10T06:56:32.257Z,93.17
2019-05-10T06:59:13.168Z,94.30
2019-05-10T07:01:31.408Z,92.22
2019-05-10T07:04:00.080Z,89.87
2019-05-10T07:06:28.771Z,89.71
2019-05-10T07:08:59.192Z,89.55
2019-05-10T07:11:27.715Z,90.55
2019-05-10T07:13:56.335Z,88.27
2019-05-10T07:16:26.129Z,88.37
2019-05-10T07:19:00.347Z,88.56
2019-05-10T07:21:25.371Z,86.89
2019-05-10T07:23:53.955Z,86.70
2019-05-10T07:26:24.807Z,85.04
2019-05-10T07:28:57.774Z,85.06
2019-05-10T07:31:23.912Z,84.42
2019-05-10T07:33:52.601Z,86.31
2019-05-10T07:36:27.255Z,82.74
2019-05-10T07:38:51.542Z,83.77
2019-05-10T07:41:26.323Z,82.24
2019-05-10T07:43:50.521Z,83.76
2019-05-10T07:46:19.131Z,80.52
2019-05-10T07:48:53.445Z,80.38
2019-05-10T07:51:23.032Z,81.38
2019-05-10T07:53:48.532Z,79.15
2019-05-10T07:56:17.223Z,82.01
2019-05-10T07:58:45.832Z,76.54
2019-05-10T08:01:14.430Z,78.89
2019-05-10T08:03:48.166Z,76.80
2019-05-10T08:06:15.522Z,77.42
2019-05-10T08:08:43.841Z,74.88
2019-05-10T08:11:12.535Z,77.15
2019-05-10T08:13:41.320Z,75.20
2019-05-10T08:16:14.440Z,75.15
2019-05-10T08:18:42.477Z,76.46
2019-05-10T08:21:21.470Z,72.50
2019-05-10T08:23:43.741Z,74.49
2019-05-10T08:26:19.715Z,75.49
2019-05-10T08:28:44.655Z,73.81
2019-05-10T08:31:12.558Z,75.32
2019-05-10T08:33:44.170Z,73.58
2019-05-10T08:36:12.246Z,71.75
2019-05-10T08:38:46.770Z,72.62
2019-05-10T08:41:14.772Z,70.06
2019-05-10T08:43:43.108Z,73.02
2019-05-10T08:46:12.151Z,72.60
2019-05-10T08:48:46.549Z,70.15
2019-05-10T08:51:12.540Z,72.45
2019-05-10T08:53:42.080Z,71.62
2019-05-10T08:56:13.668Z,66.78
2019-05-10T08:58:42.175Z,70.68
2019-05-10T09:01:20.856Z,69.09
2019-05-10T09:03:42.210Z,69.07
2019-05-10T09:06:15.904Z,66.65
2019-05-10T09:08:43.200Z,68.44
2019-05-10T09:11:11.563Z,66.19
2019-05-10T09:13:44.963Z,68.48
2019-05-10T09:16:10.507Z,65.37
2019-05-10T09:18:46.283Z,64.55
2019-05-10T09:21:11.573Z,64.99
2019-05-10T09:23:42.501Z,64.89
2019-05-10T09:26:16.242Z,63.70
2019-05-10T09:28:42.157Z,62.74
2019-05-10T09:31:18.810Z,63.64
2019-05-10T09:33:49.256Z,61.80
2019-05-10T09:36:12.504Z,63.15
2019-05-10T09:38:43.411Z,64.72
2019-05-10T09:41:11.919Z,61.86
2019-05-10T09:43:48.489Z,60.25
2019-05-10T09:46:11.473Z,62.51
2019-05-10T09:48:44.653Z,61.79
2019-05-10T09:51:13.805Z,59.07
2019-05-10T09:53:42.073Z,61.37
2019-05-10T09:56:10.761Z,61.08
2019-05-10T09:58:39.417Z,59.03
2019-05-10T10:01:16.991Z,59.34
2019-05-10T10:03:43.210Z,58.50
2019-05-10T10:06:11.317Z,55.54
2019-05-10T10:08:43.573Z,53.55
2019-05-10T10:11:15.053Z,56.75
2019-05-10T10:13:43.829Z,55.77
2019-05-10T10:16:14.740Z,55.44
2019-05-10T10:18:40.705Z,53.61
2019-05-10T10:21:10.384Z,52.18
2019-05-10T10:23:39.673Z,51.15
2019-05-10T10:26:12.707Z,51.95
2019-05-10T10:28:39.690Z,54.05
2019-05-10T10:31:08.760Z,51.33
2019-05-10T10:33:38.061Z,50.09
2019-05-10T10:36:09.931Z,49.79
2019-05-10T10:38:45.378Z,51.29
2019-05-10T10:41:08.291Z,50.71
2019-05-10T10:43:37.396Z,50.57
2019-05-10T10:46:11.973Z,51.67
2019-05-10T10:48:37.069Z,48.88
2019-05-10T10:51:07.914Z,44.62
2019-05-10T10:53:36.196Z,45.86
2019-05-10T10:56:07.493Z,48.99
2019-05-10T10:58:35.240Z,48.24
2019-05-10T11:01:10.786Z,47.94
2019-05-10T11:03:34.230Z,46.22
2019-05-10T11:06:02.845Z,47.09
2019-05-10T11:08:33.220Z,46.89
2019-05-10T11:11:01.922Z,45.93
2019-05-10T11:13:43.964Z,46.31
2019-05-10T11:16:09.879Z,45.04
2019-05-10T11:18:31.892Z,45.71
2019-05-10T11:21:01.945Z,46.70
2019-05-10T11:23:38.725Z,46.05
2019-05-10T11:26:01.448Z,44.88
2019-05-10T11:28:38.673Z,44.00
2019-05-10T11:31:01.198Z,45.03
2019-05-10T11:33:33.352Z,45.35
2019-05-10T11:36:05.824Z,44.61
2019-05-10T11:38:31.795Z,46.92
2019-05-10T11:41:01.939Z,42.19
2019-05-10T11:43:31.406Z,41.11
2019-05-10T11:46:00.142Z,42.72
2019-05-10T11:48:36.929Z,43.70
2019-05-10T11:50:59.170Z,45.51
2019-05-10T11:53:27.767Z,43.97
2019-05-10T11:55:56.409Z,44.34
2019-05-10T11:58:25.003Z,43.60
2019-05-10T12:00:59.460Z,43.14
2019-05-10T12:03:23.958Z,40.19
2019-05-10T12:06:04.560Z,41.72
2019-05-10T12:08:23.002Z,42.10
2019-05-10T12:10:54.435Z,41.44
2019-05-10T12:13:24.803Z,43.61
2019-05-10T12:15:52.393Z,42.53
2019-05-10T12:18:26.514Z,43.38
2019-05-10T12:21:00.149Z,42.49
2019-05-10T12:23:24.884Z,41.57
2019-05-10T12:26:49.962Z,42.08
2019-05-10T12:28:28.472Z,42.43
2019-05-10T12:30:52.722Z,41.48
2019-05-10T12:33:27.397Z,41.74
2019-05-10T12:35:51.667Z,41.78
2019-05-10T12:38:23.486Z,41.51
2019-05-10T12:40:51.435Z,39.10
2019-05-10T12:43:21.142Z,38.29
2019-05-10T12:46:42.198Z,39.92
2019-05-10T12:49:12.022Z,39.51
2019-05-10T12:51:43.147Z,42.28
2019-05-10T12:54:11.383Z,38.96
2019-05-10T12:56:43.710Z,40.34
2019-05-10T12:59:10.514Z,39.70
2019-05-10T13:01:39.194Z,40.71
2019-05-10T13:04:14.630Z,43.56
2019-05-10T13:06:38.117Z,40.07
2019-05-10T13:09:07.325Z,40.54
2019-05-10T13:11:36.096Z,41.87
2019-05-10T13:14:07.598Z,42.62
2019-05-10T13:16:35.109Z,41.20
2019-05-10T13:19:03.728Z,43.53
2019-05-10T13:21:32.354Z,43.53
2019-05-10T13:24:01.035Z,42.19
2019-05-10T13:26:29.658Z,44.08
2019-05-10T13:29:02.225Z,41.14
2019-05-10T13:31:28.650Z,41.22
2019-05-10T13:33:57.364Z,40.01
2019-05-10T13:36:30.553Z,42.78
2019-05-10T13:38:56.396Z,40.54
2019-05-10T13:41:26.619Z,40.54
2019-05-10T13:43:58.839Z,39.45
2019-05-10T13:46:25.717Z,41.05
2019-05-10T13:48:54.321Z,42.21
2019-05-10T13:51:22.956Z,42.59
2019-05-10T13:53:53.781Z,42.89
2019-05-10T13:56:21.949Z,42.89
2019-05-10T13:58:50.588Z,42.71
2019-05-10T14:01:19.235Z,41.55
2019-05-10T14:03:53.914Z,41.55
2019-05-10T14:06:18.214Z,40.81
2019-05-10T14:08:48.319Z,44.25
2019-05-10T14:11:17.333Z,41.08
2019-05-10T14:13:46.034Z,40.28
2019-05-10T14:16:19.478Z,38.96
2019-05-10T14:18:45.022Z,41.62
2019-05-10T14:21:13.623Z,41.62
2019-05-10T14:23:42.261Z,39.51
2019-05-10T14:26:15.839Z,41.17
2019-05-10T14:28:41.249Z,41.92
2019-05-10T14:31:09.923Z,39.61
2019-05-10T14:33:38.553Z,39.65
2019-05-10T14:36:07.146Z,40.33
2019-05-10T14:38:35.775Z,38.73
2019-05-10T14:41:11.074Z,38.27
2019-05-10T14:43:34.853Z,38.27
2019-05-10T14:46:03.616Z,39.19
2019-05-10T14:48:35.406Z,37.53
2019-05-10T14:51:09.852Z,37.53
2019-05-10T14:53:32.942Z,38.71
2019-05-10T14:56:01.692Z,37.84
2019-05-10T14:58:30.303Z,36.36
2019-05-10T15:00:58.985Z,38.55
2019-05-10T15:03:27.612Z,40.38
2019-05-10T15:06:00.994Z,40.38
2019-05-10T15:08:26.630Z,39.30
2019-05-10T15:10:57.310Z,39.47
2019-05-10T15:13:28.168Z,39.26
2019-05-10T15:15:55.995Z,40.80
2019-05-10T15:18:24.672Z,39.06
2019-05-10T15:20:53.273Z,39.06
2019-05-10T15:23:21.912Z,39.15
2019-05-10T15:25:57.235Z,39.15
2019-05-10T15:28:20.847Z,38.85
2019-05-10T15:30:52.587Z,37.94
2019-05-10T15:33:19.797Z,37.94
2019-05-10T15:35:51.980Z,39.06
2019-05-10T15:38:18.740Z,40.87
2019-05-10T15:40:47.447Z,38.93
2019-05-10T15:43:18.699Z,37.90
2019-05-10T15:45:52.494Z,37.90
2019-05-10T15:48:17.261Z,40.29
2019-05-10T15:50:45.891Z,37.91
2019-05-10T15:53:19.333Z,38.12
2019-05-10T15:55:45.024Z,40.32
2019-05-10T15:58:13.613Z,40.25
2019-05-10T16:00:42.233Z,41.16
2019-05-10T16:03:10.838Z,38.40
2019-05-10T16:05:43.624Z,39.15
2019-05-10T16:08:09.810Z,37.18
2019-05-10T16:10:40.719Z,38.33
2019-05-10T16:13:08.857Z,39.12
2019-05-10T16:15:37.485Z,40.42
2019-05-10T16:18:06.185Z,40.91
2019-05-10T16:20:37.122Z,38.37
2019-05-10T16:23:09.020Z,38.27
2019-05-10T16:25:41.843Z,40.04
2019-05-10T16:28:05.996Z,39.67
2019-05-10T16:30:36.586Z,40.45
2019-05-10T16:33:09.756Z,41.17
2019-05-10T16:35:38.992Z,42.51
2019-05-10T16:38:06.190Z,41.17
2019-05-10T16:40:34.822Z,42.29
2019-05-10T16:43:06.757Z,38.71
2019-05-10T16:45:34.092Z,41.67
2019-05-10T16:48:05.602Z,37.80
2019-05-10T16:50:33.863Z,39.72
2019-05-10T16:53:05.813Z,38.73
2019-05-10T16:55:35.592Z,39.97
2019-05-10T16:58:03.530Z,41.68
2019-05-10T17:00:32.258Z,39.22
2019-05-10T17:03:00.890Z,39.22
2019-05-10T17:05:29.519Z,42.73
2019-05-10T17:07:58.746Z,42.73
2019-05-10T17:10:33.120Z,41.62
2019-05-10T17:12:59.446Z,40.59
2019-05-10T17:15:28.447Z,42.00
2019-05-10T17:17:57.153Z,42.71
2019-05-10T17:20:25.755Z,40.75
2019-05-10T17:22:54.453Z,40.75
2019-05-10T17:25:23.058Z,42.57
2019-05-10T17:27:57.758Z,40.72
2019-05-10T17:30:27.577Z,41.24
2019-05-10T17:32:52.463Z,41.41
2019-05-10T17:35:21.092Z,43.65
2019-05-10T17:37:52.864Z,41.34
2019-05-10T17:40:20.081Z,42.51
2019-05-10T17:42:51.496Z,43.37
2019-05-10T17:45:19.127Z,44.43
2019-05-10T17:47:47.786Z,43.98
2019-05-10T17:50:16.526Z,44.04
2019-05-10T17:52:45.185Z,43.54
2019-05-10T17:55:16.748Z,43.58
2019-05-10T17:57:48.663Z,44.81
2019-05-10T18:00:15.027Z,44.89
2019-05-10T18:02:43.677Z,45.35
2019-05-10T18:05:12.461Z,45.35
2019-05-10T18:07:41.091Z,45.84
2019-05-10T18:10:09.890Z,46.61
2019-05-10T18:12:38.550Z,46.76
2019-05-10T18:15:08.239Z,47.36
2019-05-10T18:17:37.004Z,47.65
2019-05-10T18:20:06.201Z,46.45
2019-05-10T18:22:42.488Z,47.14
2019-05-10T18:25:19.366Z,48.43
2019-05-10T18:27:41.725Z,49.08
2019-05-10T18:30:17.453Z,48.00
2019-05-10T18:32:49.588Z,49.06
2019-05-10T18:35:32.928Z,49.75
2019-05-10T18:38:08.601Z,49.21
2019-05-10T18:40:41.368Z,49.22
2019-05-10T18:43:11.062Z,49.09
2019-05-10T18:45:40.595Z,50.16
2019-05-10T18:48:13.483Z,52.65
2019-05-10T18:50:47.412Z,51.96
2019-05-10T18:53:21.783Z,52.42
2019-05-10T18:55:53.587Z,52.67
2019-05-10T18:58:28.989Z,51.78
2019-05-10T19:01:00.787Z,52.54
2019-05-10T19:03:33.577Z,52.63
2019-05-10T19:06:14.403Z,52.88
2019-05-10T19:08:45.215Z,53.29
2019-05-10T19:11:15.389Z,53.61
2019-05-10T19:13:53.741Z,54.41
2019-05-10T19:16:32.112Z,54.90
2019-05-10T19:19:01.825Z,55.29
2019-05-10T19:21:37.296Z,54.83
2019-05-10T19:24:04.310Z,55.64
2019-05-10T19:26:38.005Z,55.36
2019-05-10T19:29:09.888Z,55.61
2019-05-10T19:31:41.628Z,56.77
2019-05-10T19:34:15.447Z,57.92
2019-05-10T19:36:45.137Z,57.15
2019-05-10T19:39:14.759Z,58.09
2019-05-10T19:41:46.703Z,59.71
2019-05-10T19:44:20.246Z,59.82
2019-05-10T19:46:50.454Z,61.43
2019-05-10T19:49:23.097Z,62.69
2019-05-10T19:52:07.218Z,62.41
2019-05-10T19:54:51.125Z,61.43
2019-05-10T19:57:28.188Z,62.15
2019-05-10T20:00:19.526Z,62.74
2019-05-10T20:02:53.770Z,63.56
2019-05-10T20:05:28.890Z,63.31
2019-05-10T20:08:00.029Z,63.62
2019-05-10T20:10:36.397Z,65.50
2019-05-10T20:13:25.987Z,65.87
2019-05-10T20:16:01.253Z,66.62
2019-05-10T20:18:31.248Z,68.14
2019-05-10T20:21:15.985Z,68.30
2019-05-10T20:23:47.023Z,67.55
2019-05-10T20:26:17.231Z,66.80
2019-05-10T20:28:48.484Z,66.52
2019-05-10T20:31:18.304Z,66.48
2019-05-10T20:33:49.931Z,66.91
2019-05-10T20:36:23.624Z,70.02
2019-05-10T20:38:55.387Z,71.17
2019-05-10T20:41:27.170Z,71.13
2019-05-10T20:43:57.700Z,70.12
2019-05-10T20:46:29.275Z,69.74
2019-05-10T20:49:02.543Z,69.29
2019-05-10T20:51:32.387Z,69.44
2019-05-10T20:54:03.021Z,68.68
2019-05-10T20:56:48.067Z,68.44
2019-05-10T20:59:20.785Z,69.40
2019-05-10T21:01:54.411Z,70.48
2019-05-10T21:04:24.075Z,70.47
2019-05-10T21:06:53.663Z,70.62
2019-05-10T21:09:24.392Z,70.22
2019-05-10T21:11:57.577Z,72.78
2019-05-10T21:14:28.559Z,73.25
2019-05-10T21:17:21.699Z,72.34
2019-05-10T21:19:51.942Z,72.03
2019-05-10T21:22:45.551Z,71.07
2019-05-10T21:25:23.947Z,71.98
2019-05-10T21:27:59.432Z,72.06
2019-05-10T21:33:37.866Z,73.10
2019-05-10T21:36:08.836Z,72.59
2019-05-10T21:38:41.740Z,72.12
2019-05-10T21:41:30.881Z,72.19
2019-05-10T21:44:13.224Z,73.64
2019-05-10T21:46:42.715Z,73.29
2019-05-10T21:49:11.805Z,73.40
2019-05-10T21:51:45.605Z,74.26
2019-05-10T21:54:19.739Z,74.46
2019-05-10T21:56:52.241Z,73.45
2019-05-10T21:59:26.562Z,72.34
2019-05-10T22:01:58.757Z,73.88
2019-05-10T22:04:31.359Z,76.50
2019-05-10T22:07:06.926Z,77.39
2019-05-10T22:09:40.710Z,78.18
2019-05-10T22:12:10.292Z,77.33
2019-05-10T22:14:40.105Z,77.22
2019-05-10T22:17:15.919Z,77.23
2019-05-10T22:19:45.378Z,72.11
2019-05-10T22:22:37.002Z,69.71
2019-05-10T22:25:08.423Z,69.78
2019-05-10T22:27:40.308Z,69.42
2019-05-10T22:30:18.534Z,71.08
2019-05-10T22:33:05.015Z,74.51
2019-05-10T22:35:41.058Z,76.26
2019-05-10T22:38:22.823Z,76.18
2019-05-10T22:41:04.116Z,76.25
2019-05-10T22:43:40.803Z,75.98
2019-05-10T22:46:11.372Z,75.44
2019-05-10T22:48:43.438Z,75.24
2019-05-10T22:51:16.399Z,77.41
2019-05-10T22:53:59.650Z,77.92
2019-05-10T22:56:23.570Z,78.42
2019-05-10T22:59:03.028Z,79.08
2019-05-10T23:01:35.373Z,80.41
2019-05-10T23:04:06.275Z,80.05
2019-05-10T23:06:38.208Z,80.47
2019-05-10T23:09:23.935Z,81.46
2019-05-10T23:11:49.145Z,84.52
2019-05-10T23:14:18.870Z,85.08
2019-05-10T23:16:50.187Z,85.10
2019-05-10T23:19:21.228Z,86.35
2019-05-10T23:21:52.580Z,86.77
2019-05-10T23:24:37.020Z,85.72
2019-05-10T23:27:06.694Z,83.96
2019-05-10T23:29:35.398Z,84.72
2019-05-10T23:32:04.178Z,85.69
2019-05-10T23:34:32.822Z,87.13
2019-05-10T23:37:01.442Z,84.19
2019-05-10T23:39:40.416Z,84.78
2019-05-10T23:42:00.562Z,83.27
2019-05-10T23:44:29.168Z,81.32
2019-05-10T23:46:57.902Z,80.29
2019-05-10T23:49:26.548Z,80.41
2019-05-10T23:51:55.110Z,81.10
2019-05-10T23:54:23.714Z,81.02
2019-05-10T23:56:52.342Z,82.58
2019-05-10T23:59:21.027Z,82.22
